createdAt,value
2023-02-23T00:01:55.373Z,13.25
2023-02-23T00:04:23.754Z,12.88
2023-02-23T00:06:55.061Z,13.07
2023-02-23T00:09:25.342Z,12.35
2023-02-23T00:14:20.426Z,11.10
2023-02-23T00:16:47.385Z,11.90
2023-02-23T00:19:14.534Z,12.85
2023-02-23T00:21:41.862Z,12.77
2023-02-23T00:24:11.181Z,13.65
2023-02-23T00:26:40.186Z,12.32
2023-02-23T00:29:17.375Z,13.75
2023-02-23T00:31:45.749Z,13.25
2023-02-23T00:34:15.596Z,14.20
2023-02-23T00:36:43.595Z,12.70
2023-02-23T00:39:21.425Z,12.80
2023-02-23T00:41:49.646Z,13.45
2023-02-23T00:44:17.219Z,14.35
2023-02-23T00:46:45.363Z,13.70
2023-02-23T00:49:13.336Z,14.27
2023-02-23T00:51:41.666Z,13.52
2023-02-23T00:54:09.388Z,14.13
2023-02-23T00:56:36.284Z,14.43
2023-02-23T00:59:03.156Z,13.18
2023-02-23T01:01:30.777Z,12.13
2023-02-23T01:03:57.669Z,11.60
2023-02-23T01:06:25.028Z,12.15
2023-02-23T01:08:57.194Z,11.32
2023-02-23T01:11:31.112Z,10.13
2023-02-23T01:13:59.490Z,10.27
2023-02-23T01:16:29.846Z,10.25
2023-02-23T01:21:31.000Z,10.55
2023-02-23T01:23:59.189Z,10.95
2023-02-23T01:26:30.119Z,10.10
2023-02-23T01:29:05.433Z,11.73
2023-02-23T01:31:35.928Z,11.90
2023-02-23T01:34:03.874Z,11.20
2023-02-23T01:36:35.027Z,12.30
2023-02-23T01:39:02.390Z,11.90
2023-02-23T01:41:33.151Z,10.93
2023-02-23T01:44:26.189Z,10.88
2023-02-23T01:46:53.392Z,11.45
2023-02-23T01:49:29.717Z,12.95
2023-02-23T01:52:03.598Z,11.70
2023-02-23T01:54:41.291Z,12.27
2023-02-23T01:57:13.325Z,12.40
2023-02-23T01:59:44.017Z,11.65
2023-02-23T02:02:13.388Z,11.68
2023-02-23T02:04:45.570Z,14.20
2023-02-23T02:07:18.146Z,11.77
2023-02-23T02:10:08.570Z,13.48
2023-02-23T02:12:35.909Z,13.40
2023-02-23T02:15:05.228Z,12.25
2023-02-23T02:18:09.435Z,13.05
2023-02-23T02:21:13.195Z,11.13
2023-02-23T02:23:49.063Z,12.15
2023-02-23T02:26:29.554Z,12.68
2023-02-23T02:29:15.278Z,13.88
2023-02-23T02:31:57.174Z,11.93
2023-02-23T02:34:36.986Z,13.73
2023-02-23T02:37:03.881Z,13.43
2023-02-23T02:39:41.146Z,12.70
2023-02-23T02:42:18.105Z,13.43
2023-02-23T02:45:08.370Z,14.20
2023-02-23T02:47:38.083Z,12.23
2023-02-23T02:50:17.621Z,12.38
2023-02-23T02:53:07.098Z,13.43
2023-02-23T02:55:37.661Z,13.90
2023-02-23T02:58:08.389Z,12.50
2023-02-23T03:00:57.431Z,14.32
2023-02-23T03:03:48.949Z,13.63
2023-02-23T03:06:35.328Z,13.18
2023-02-23T03:09:50.677Z,12.95
2023-02-23T03:12:56.121Z,14.32
2023-02-23T03:16:01.866Z,15.13
2023-02-23T03:19:17.132Z,14.05
2023-02-23T03:22:11.708Z,13.27
2023-02-23T03:25:09.783Z,14.02
2023-02-23T03:28:20.213Z,16.33
2023-02-23T03:31:24.541Z,14.98
2023-02-23T03:34:29.156Z,14.60
2023-02-23T03:37:24.811Z,16.17
2023-02-23T03:40:35.091Z,17.08
2023-02-23T03:43:27.033Z,16.75
2023-02-23T03:46:16.088Z,19.02
2023-02-23T03:49:05.104Z,18.48
2023-02-23T03:51:55.527Z,18.33
2023-02-23T03:54:51.993Z,18.98
2023-02-23T03:57:40.090Z,18.52
2023-02-23T04:00:33.127Z,21.77
2023-02-23T04:03:19.967Z,21.58
2023-02-23T04:06:08.049Z,21.30
2023-02-23T04:08:57.042Z,21.30
2023-02-23T04:11:54.602Z,20.92
2023-02-23T04:14:36.580Z,21.20
2023-02-23T04:17:05.175Z,20.35
2023-02-23T04:19:32.438Z,21.20
2023-02-23T04:21:59.734Z,19.92
2023-02-23T04:24:27.417Z,19.50
2023-02-23T04:26:54.302Z,19.58
2023-02-23T04:29:21.173Z,20.98
2023-02-23T04:31:48.841Z,21.98
2023-02-23T04:34:16.180Z,20.00
2023-02-23T04:36:43.884Z,20.25
2023-02-23T04:39:10.732Z,19.52
2023-02-23T04:41:37.717Z,19.05
2023-02-23T04:44:05.085Z,18.85
2023-02-23T04:46:32.383Z,19.02
2023-02-23T04:48:59.260Z,17.13
2023-02-23T04:51:32.319Z,18.05
2023-02-23T04:53:59.443Z,18.63
2023-02-23T04:56:26.423Z,16.77
2023-02-23T04:58:53.890Z,17.70
2023-02-23T05:01:24.291Z,17.55
2023-02-23T05:03:51.247Z,17.42
2023-02-23T05:06:18.684Z,18.20
2023-02-23T05:08:45.774Z,17.85
2023-02-23T05:11:13.470Z,17.02
2023-02-23T05:13:40.370Z,18.63
2023-02-23T05:16:08.064Z,19.73
2023-02-23T05:18:35.362Z,20.15
2023-02-23T05:21:08.090Z,18.75
2023-02-23T05:23:35.724Z,19.30
2023-02-23T05:26:06.231Z,18.00
2023-02-23T05:28:35.427Z,18.23
2023-02-23T05:31:03.711Z,16.52
2023-02-23T05:33:32.213Z,16.08
2023-02-23T05:36:00.515Z,16.33
2023-02-23T05:38:27.696Z,18.08
2023-02-23T05:40:55.602Z,19.65
2023-02-23T05:43:22.878Z,17.70
2023-02-23T05:45:50.159Z,15.60
2023-02-23T05:48:17.078Z,14.70
2023-02-23T05:50:44.319Z,14.57
2023-02-23T05:53:11.318Z,14.38
2023-02-23T05:55:38.201Z,14.55
2023-02-23T05:58:05.089Z,16.10
2023-02-23T06:00:32.515Z,19.17
2023-02-23T06:02:59.411Z,20.30
2023-02-23T06:05:26.292Z,20.73
2023-02-23T06:07:53.918Z,21.05
2023-02-23T06:10:20.774Z,19.48
2023-02-23T06:12:48.072Z,19.52
2023-02-23T06:15:15.371Z,19.98
2023-02-23T06:17:42.728Z,19.60
2023-02-23T06:20:11.854Z,18.77
2023-02-23T06:22:38.798Z,17.90
2023-02-23T06:25:08.862Z,18.55
2023-02-23T06:27:36.045Z,19.20
2023-02-23T06:30:03.355Z,18.98
2023-02-23T06:32:30.358Z,18.38
2023-02-23T06:34:57.402Z,20.20
2023-02-23T06:37:24.975Z,18.92
2023-02-23T06:39:52.243Z,18.63
2023-02-23T06:42:19.461Z,19.60
2023-02-23T06:44:46.794Z,20.55
2023-02-23T06:47:13.682Z,21.23
2023-02-23T06:49:40.660Z,19.58
2023-02-23T06:52:08.834Z,22.83
2023-02-23T06:54:38.121Z,19.92
2023-02-23T06:57:05.384Z,21.90
2023-02-23T06:59:32.836Z,20.13
2023-02-23T07:01:59.935Z,18.92
2023-02-23T07:04:27.255Z,19.60
2023-02-23T07:06:54.257Z,19.05
2023-02-23T07:09:21.191Z,19.60
2023-02-23T07:11:48.428Z,19.17
2023-02-23T07:14:26.158Z,19.70
2023-02-23T07:16:54.116Z,18.70
2023-02-23T07:19:21.016Z,18.83
2023-02-23T07:21:47.892Z,20.67
2023-02-23T07:24:14.775Z,19.65
2023-02-23T07:26:43.596Z,20.75
2023-02-23T07:29:12.500Z,19.55
2023-02-23T07:31:40.495Z,21.67
2023-02-23T07:34:09.052Z,22.50
2023-02-23T07:36:36.507Z,23.23
2023-02-23T07:39:05.028Z,22.85
2023-02-23T07:41:32.519Z,20.20
2023-02-23T07:44:01.065Z,20.40
2023-02-23T07:46:27.945Z,20.33
2023-02-23T07:48:54.895Z,23.52
2023-02-23T07:51:22.011Z,23.55
2023-02-23T07:53:49.616Z,23.98
2023-02-23T07:56:16.547Z,23.67
2023-02-23T07:58:44.741Z,25.50
2023-02-23T08:01:13.160Z,25.85
2023-02-23T08:03:40.663Z,24.98
2023-02-23T08:06:07.643Z,25.00
2023-02-23T08:08:35.535Z,26.30
2023-02-23T08:11:04.481Z,25.52
2023-02-23T08:13:31.937Z,25.15
2023-02-23T08:15:59.464Z,23.70
2023-02-23T08:18:27.757Z,26.23
2023-02-23T08:21:02.420Z,24.85
2023-02-23T08:23:33.747Z,24.40
2023-02-23T08:26:02.191Z,25.85
2023-02-23T08:28:30.314Z,26.05
2023-02-23T08:30:57.554Z,25.25
2023-02-23T08:33:24.919Z,23.95
2023-02-23T08:35:53.713Z,23.90
2023-02-23T08:38:21.039Z,23.30
2023-02-23T08:40:47.967Z,23.42
2023-02-23T08:43:16.299Z,26.48
2023-02-23T08:45:43.273Z,24.17
2023-02-23T08:48:10.551Z,25.58
2023-02-23T08:50:37.629Z,25.10
2023-02-23T08:53:05.445Z,24.42
2023-02-23T08:55:35.608Z,25.17
2023-02-23T08:58:02.723Z,25.20
2023-02-23T09:00:29.601Z,25.10
2023-02-23T09:02:56.441Z,26.15
2023-02-23T09:05:23.427Z,25.60
2023-02-23T09:07:50.909Z,25.30
2023-02-23T09:10:20.431Z,24.33
2023-02-23T09:12:47.308Z,25.77
2023-02-23T09:15:14.219Z,24.65
2023-02-23T09:17:44.896Z,22.45
2023-02-23T09:20:13.644Z,22.35
2023-02-23T09:22:50.109Z,21.10
2023-02-23T09:25:19.275Z,23.23
2023-02-23T09:27:47.020Z,21.38
2023-02-23T09:30:17.989Z,23.27
2023-02-23T09:32:45.672Z,21.55
2023-02-23T09:35:12.740Z,24.15
2023-02-23T09:37:39.986Z,21.20
2023-02-23T09:40:09.822Z,23.02
2023-02-23T09:42:42.603Z,21.42
2023-02-23T09:45:26.536Z,22.23
2023-02-23T09:48:22.490Z,23.20
2023-02-23T09:50:55.404Z,23.05
2023-02-23T09:53:47.460Z,23.20
2023-02-23T09:56:27.349Z,22.42
2023-02-23T09:58:54.687Z,22.52
2023-02-23T10:01:30.489Z,21.42
2023-02-23T10:04:07.140Z,22.00
2023-02-23T10:06:34.808Z,21.83
2023-02-23T10:09:32.027Z,21.40
2023-02-23T10:12:19.783Z,22.80
2023-02-23T10:14:53.028Z,21.60
2023-02-23T10:17:57.003Z,23.90
2023-02-23T10:20:53.709Z,21.75
2023-02-23T10:23:31.255Z,22.23
2023-02-23T10:26:00.974Z,21.75
2023-02-23T10:28:33.301Z,21.98
2023-02-23T10:31:01.327Z,23.13
2023-02-23T10:33:41.368Z,21.88
2023-02-23T10:36:19.964Z,22.02
2023-02-23T10:38:47.562Z,21.55
2023-02-23T10:41:15.150Z,21.88
2023-02-23T10:43:42.642Z,21.75
2023-02-23T10:46:19.810Z,23.02
2023-02-23T10:48:49.126Z,24.55
2023-02-23T10:51:38.286Z,21.60
2023-02-23T10:54:37.613Z,25.08
2023-02-23T10:57:07.462Z,24.23
2023-02-23T10:59:34.770Z,24.55
2023-02-23T11:02:25.844Z,25.80
2023-02-23T11:04:56.915Z,27.08
2023-02-23T11:07:31.494Z,28.20
2023-02-23T11:10:00.038Z,31.27
2023-02-23T11:12:49.785Z,31.83
2023-02-23T11:15:46.349Z,37.28
2023-02-23T11:18:22.812Z,36.78
2023-02-23T11:20:51.138Z,35.33
2023-02-23T11:23:29.844Z,35.67
2023-02-23T11:26:02.417Z,37.08
2023-02-23T11:28:31.391Z,39.03
2023-02-23T11:31:03.985Z,37.55
2023-02-23T11:33:35.989Z,38.25
2023-02-23T11:36:15.651Z,37.28
2023-02-23T11:38:42.600Z,38.42
2023-02-23T11:41:23.180Z,40.15
2023-02-23T11:43:57.650Z,37.95
2023-02-23T11:46:27.633Z,38.75
2023-02-23T11:49:04.540Z,39.03
2023-02-23T11:51:40.689Z,39.60
2023-02-23T11:54:19.849Z,38.42
2023-02-23T11:56:55.058Z,38.45
2023-02-23T11:59:30.947Z,41.53
2023-02-23T12:02:06.580Z,38.80
2023-02-23T12:04:37.481Z,40.22
2023-02-23T12:07:31.526Z,39.83
2023-02-23T12:10:12.412Z,39.42
2023-02-23T12:12:47.653Z,39.03
2023-02-23T12:15:39.702Z,40.45
2023-02-23T12:18:26.820Z,37.97
2023-02-23T12:20:57.900Z,39.53
2023-02-23T12:23:29.883Z,39.10
2023-02-23T12:26:17.896Z,40.13
2023-02-23T12:29:06.092Z,39.05
2023-02-23T12:31:48.187Z,40.15
2023-02-23T12:34:24.751Z,39.72
2023-02-23T12:37:18.873Z,37.15
2023-02-23T12:39:50.939Z,40.55
2023-02-23T12:42:31.433Z,41.20
2023-02-23T12:45:06.050Z,40.60
2023-02-23T12:48:02.551Z,36.88
2023-02-23T12:50:33.864Z,41.03
2023-02-23T12:53:20.667Z,40.42
2023-02-23T12:56:04.792Z,40.15
2023-02-23T12:58:37.612Z,40.33
2023-02-23T13:01:14.600Z,41.38
2023-02-23T13:03:55.201Z,41.35
2023-02-23T13:06:50.759Z,39.05
2023-02-23T13:09:38.698Z,41.08
2023-02-23T13:12:30.350Z,40.45
2023-02-23T13:15:45.395Z,41.30
2023-02-23T13:18:30.709Z,42.92
2023-02-23T13:21:36.201Z,39.97
2023-02-23T13:24:24.012Z,42.17
2023-02-23T13:27:03.006Z,39.10
2023-02-23T13:29:48.818Z,40.47
2023-02-23T13:32:21.474Z,39.40
2023-02-23T13:35:05.503Z,40.58
2023-02-23T13:37:45.921Z,38.35
2023-02-23T13:42:49.145Z,35.20
2023-02-23T13:48:32.189Z,37.33
2023-02-23T13:51:29.631Z,37.67
2023-02-23T13:54:23.193Z,36.97
2023-02-23T13:56:55.423Z,37.55
2023-02-23T13:59:38.370Z,35.30
2023-02-23T14:02:27.776Z,38.08
2023-02-23T14:05:16.044Z,38.17
2023-02-23T14:07:45.552Z,36.33
2023-02-23T14:10:43.701Z,39.03
2023-02-23T14:13:13.637Z,35.28
2023-02-23T14:15:43.350Z,38.25
2023-02-23T14:18:20.867Z,38.15
2023-02-23T14:21:05.165Z,37.10
2023-02-23T14:23:49.153Z,38.22
2023-02-23T14:26:37.528Z,39.30
2023-02-23T14:29:21.236Z,39.72
2023-02-23T14:32:24.982Z,39.75
2023-02-23T14:34:54.057Z,41.17
2023-02-23T14:37:37.013Z,40.58
2023-02-23T14:40:21.547Z,40.58
2023-02-23T14:42:53.736Z,38.70
2023-02-23T14:45:27.269Z,40.65
2023-02-23T14:48:07.684Z,36.70
2023-02-23T14:50:36.352Z,39.50
2023-02-23T14:53:05.652Z,39.72
2023-02-23T14:55:36.766Z,39.40
2023-02-23T14:58:19.130Z,40.60
2023-02-23T15:00:46.557Z,39.58
2023-02-23T15:03:13.953Z,39.90
2023-02-23T15:06:00.661Z,38.22
2023-02-23T15:08:30.610Z,36.80
2023-02-23T15:11:03.588Z,37.70
2023-02-23T15:13:40.258Z,40.35
2023-02-23T15:16:13.292Z,39.08
2023-02-23T15:19:31.353Z,40.55
2023-02-23T15:22:00.723Z,39.67
2023-02-23T15:24:47.539Z,39.70
2023-02-23T15:27:23.659Z,41.80
2023-02-23T15:29:50.837Z,38.05
2023-02-23T15:32:24.910Z,38.40
2023-02-23T15:34:53.811Z,38.85
2023-02-23T15:38:14.109Z,38.28
2023-02-23T15:40:45.908Z,33.22
2023-02-23T15:43:13.200Z,33.30
2023-02-23T15:45:46.698Z,32.83
2023-02-23T15:48:18.480Z,30.13
2023-02-23T15:50:51.359Z,28.25
2023-02-23T15:53:32.770Z,26.83
2023-02-23T15:56:16.143Z,20.35
2023-02-23T15:58:56.505Z,16.98
2023-02-23T16:01:30.353Z,14.43
2023-02-23T16:04:05.842Z,12.27
2023-02-23T16:06:37.122Z,13.88
2023-02-23T16:09:27.567Z,15.63
2023-02-23T16:14:24.478Z,14.73
2023-02-23T16:17:09.897Z,13.73
2023-02-23T16:19:41.288Z,14.98
2023-02-23T16:22:18.774Z,15.13
2023-02-23T16:24:49.576Z,14.95
2023-02-23T16:27:17.412Z,13.93
2023-02-23T16:29:45.073Z,15.68
2023-02-23T16:32:18.416Z,15.40
2023-02-23T16:34:54.632Z,16.55
2023-02-23T16:39:58.632Z,15.73
2023-02-23T16:42:28.097Z,15.35
2023-02-23T16:44:56.510Z,16.43
2023-02-23T16:47:24.391Z,17.95
2023-02-23T16:49:53.424Z,17.48
2023-02-23T16:52:23.703Z,19.35
2023-02-23T16:54:54.537Z,18.35
2023-02-23T16:57:27.025Z,23.75
2023-02-23T16:59:54.993Z,22.05
2023-02-23T17:02:24.560Z,18.05
2023-02-23T17:04:52.938Z,20.70
2023-02-23T17:07:22.908Z,20.02
2023-02-23T17:09:51.118Z,19.92
2023-02-23T17:12:20.048Z,18.65
2023-02-23T17:14:47.553Z,18.35
2023-02-23T17:17:16.593Z,18.35
2023-02-23T17:19:45.604Z,18.50
2023-02-23T17:22:13.114Z,18.67
2023-02-23T17:24:40.979Z,19.88
2023-02-23T17:27:08.105Z,17.20
2023-02-23T17:29:35.146Z,17.33
2023-02-23T17:32:03.056Z,17.50
2023-02-23T17:34:30.774Z,16.50
2023-02-23T17:36:57.705Z,18.50
2023-02-23T17:39:28.310Z,18.35
2023-02-23T17:41:56.080Z,17.90
2023-02-23T17:44:23.499Z,18.05
2023-02-23T17:46:52.218Z,17.45
2023-02-23T17:49:19.828Z,17.90
2023-02-23T17:51:47.276Z,18.35
2023-02-23T17:54:14.342Z,17.98
2023-02-23T17:56:41.332Z,17.77
2023-02-23T17:59:08.864Z,15.75
2023-02-23T18:01:36.204Z,18.17
2023-02-23T18:04:04.012Z,18.20
2023-02-23T18:06:31.529Z,17.10
2023-02-23T18:08:58.587Z,20.40
2023-02-23T18:11:25.768Z,18.90
2023-02-23T18:13:53.150Z,17.70
2023-02-23T18:16:20.486Z,19.55
2023-02-23T18:18:49.147Z,17.75
2023-02-23T18:21:21.728Z,18.25
2023-02-23T18:23:49.657Z,17.63
2023-02-23T18:26:19.600Z,18.10
2023-02-23T18:28:48.069Z,17.88
2023-02-23T18:31:17.274Z,17.38
2023-02-23T18:33:44.949Z,20.77
2023-02-23T18:36:24.055Z,20.15
2023-02-23T18:38:51.003Z,17.85
2023-02-23T18:43:45.572Z,16.73
2023-02-23T18:46:14.326Z,16.08
2023-02-23T18:48:42.723Z,15.40
2023-02-23T18:51:14.266Z,15.02
2023-02-23T18:53:42.266Z,14.00
2023-02-23T18:56:15.253Z,12.35
2023-02-23T18:58:45.181Z,12.00
2023-02-23T19:01:18.002Z,12.00
2023-02-23T19:03:45.850Z,12.18
2023-02-23T19:06:14.168Z,12.43
2023-02-23T19:08:43.610Z,11.87
2023-02-23T19:11:11.861Z,11.75
2023-02-23T19:16:07.622Z,9.32
2023-02-23T19:18:37.609Z,11.10
2023-02-23T19:23:31.631Z,11.25
2023-02-23T19:26:02.308Z,12.35
2023-02-23T19:28:30.203Z,11.40
2023-02-23T19:36:11.731Z,22.23
2023-02-23T19:38:39.266Z,14.02
2023-02-23T19:41:11.913Z,11.70
2023-02-23T19:43:39.231Z,12.55
2023-02-23T19:46:13.256Z,12.05
2023-02-23T19:48:40.231Z,12.30
2023-02-23T19:51:11.190Z,11.95
2023-02-23T19:53:38.551Z,11.90
2023-02-23T19:56:08.694Z,12.82
2023-02-23T19:58:36.374Z,12.00
2023-02-23T20:01:08.303Z,11.63
2023-02-23T20:03:35.973Z,12.30
2023-02-23T20:06:06.751Z,21.42
2023-02-23T20:08:34.194Z,23.70
2023-02-23T20:11:04.950Z,22.58
2023-02-23T20:13:32.205Z,18.63
2023-02-23T20:18:33.577Z,11.85
2023-02-23T20:21:00.938Z,11.27
2023-02-23T20:23:27.909Z,12.27
2023-02-23T20:30:48.918Z,11.02
2023-02-23T20:33:16.010Z,12.63
2023-02-23T20:35:43.385Z,12.70
2023-02-23T20:38:11.402Z,12.35
2023-02-23T20:40:38.974Z,11.05
2023-02-23T20:43:05.899Z,13.10
2023-02-23T20:45:33.018Z,13.57
2023-02-23T20:48:00.098Z,11.70
2023-02-23T20:50:28.962Z,12.32
2023-02-23T20:52:56.240Z,11.63
2023-02-23T20:55:27.248Z,10.95
2023-02-23T20:57:55.483Z,12.63
2023-02-23T21:00:24.156Z,10.88
2023-02-23T21:02:55.659Z,11.18
2023-02-23T21:05:30.285Z,11.95
2023-02-23T21:08:05.909Z,12.52
2023-02-23T21:13:02.416Z,11.07
2023-02-23T21:15:30.527Z,11.80
2023-02-23T21:17:58.625Z,11.45
2023-02-23T21:20:27.944Z,12.32
2023-02-23T21:22:55.888Z,13.40
2023-02-23T21:25:26.238Z,13.65
2023-02-23T21:27:54.303Z,13.73
2023-02-23T21:30:24.228Z,14.20
2023-02-23T21:32:53.370Z,13.75
2023-02-23T21:35:21.309Z,15.00
2023-02-23T21:37:50.595Z,14.27
2023-02-23T21:40:20.891Z,14.73
2023-02-23T21:42:54.267Z,15.10
2023-02-23T21:45:21.610Z,15.32
2023-02-23T21:47:51.735Z,16.00
2023-02-23T21:50:19.865Z,14.80
2023-02-23T21:52:48.872Z,15.82
2023-02-23T21:55:24.641Z,14.65
2023-02-23T21:57:52.337Z,14.35
2023-02-23T22:00:21.080Z,13.57
2023-02-23T22:02:48.747Z,14.40
2023-02-23T22:05:16.812Z,14.15
2023-02-23T22:07:51.942Z,12.68
2023-02-23T22:10:20.662Z,14.35
2023-02-23T22:12:50.229Z,13.88
2023-02-23T22:15:17.625Z,13.32
2023-02-23T22:17:45.036Z,12.52
2023-02-23T22:20:12.337Z,12.20
2023-02-23T22:22:39.510Z,12.40
2023-02-23T22:25:08.064Z,11.90
2023-02-23T22:27:35.072Z,12.45
2023-02-23T22:30:02.137Z,12.60
2023-02-23T22:32:33.431Z,12.88
2023-02-23T22:35:01.180Z,13.23
2023-02-23T22:37:32.220Z,13.20
2023-02-23T22:40:08.269Z,12.82
2023-02-23T22:42:35.531Z,12.77
2023-02-23T22:45:02.501Z,13.88
2023-02-23T22:47:29.573Z,14.05
2023-02-23T22:49:56.386Z,14.52
2023-02-23T22:52:23.905Z,15.27
2023-02-23T22:54:51.240Z,14.88
2023-02-23T22:57:18.145Z,16.45
2023-02-23T23:00:00.750Z,17.00
2023-02-23T23:02:32.305Z,16.42
2023-02-23T23:05:01.841Z,16.25
2023-02-23T23:07:30.977Z,16.48
2023-02-23T23:09:58.454Z,16.85
2023-02-23T23:12:27.930Z,17.02
2023-02-23T23:15:01.313Z,17.35
2023-02-23T23:17:31.882Z,17.70
2023-02-23T23:20:00.375Z,17.73
2023-02-23T23:22:27.660Z,17.75
2023-02-23T23:24:54.707Z,16.90
2023-02-23T23:27:21.598Z,17.87
2023-02-23T23:29:48.987Z,16.95
2023-02-23T23:32:18.130Z,16.90
2023-02-23T23:34:49.350Z,17.05
2023-02-23T23:37:19.763Z,16.45
2023-02-23T23:39:46.581Z,18.25
2023-02-23T23:42:14.024Z,17.67
2023-02-23T23:44:40.960Z,14.48
2023-02-23T23:47:08.152Z,12.85
2023-02-23T23:49:39.981Z,10.20
2023-02-23T23:52:07.463Z,9.77
2023-02-23T23:54:38.971Z,9.75
2023-02-23T23:57:06.711Z,9.40
2023-02-23T23:59:35.437Z,9.87
